Taloga, OK (73667)

5:55 PM CDT on July 29, 2014 (GMT -0500)
7H Ranch (KOKCHEST3) Elev 1716 ft | 36.19 °N, 98.88 °W | Change Station
Active Advisory: Flash Flood Watch

Current weather conditions updated 4 seconds ago

Light Drizzle
Light Drizzle
69.8 °F
Feels Like 69.8 °F
N
8.3
Wind Variable Wind from SW
Gusts 8.3 mph

Tomorrow is forecast to be Much Cooler than today. Thunderstorms, some may contain heavy rain.

Today
High -- | Low -- °F
--% Chance of Precip.
Yesterday
High -- | Low -- °F
Precip. -- in
6:40 AM 8:43 PM
Waxing Crescent, 8% visible
Pressure 30.13 in
Visibility 10.0 miles
Clouds Clear
Dew Point 66 °F
Humidity 89%
Rainfall 0.00 in
Snow Depth Not available.
UV 4 out of 12
Pollen 5.60 out of 12
Air Quality Not available.
Flu Activity Not available.
METAR KJWG 292235Z AUTO 22008KT 10SM -DZ CLR 22/20 A3013 RMK AO2 T02230195

More Conditions Fewer Conditions

Pressure 30.13 in
Visibility 10.0 miles
Clouds Clear
Dew Point 66 °F
Humidity 89%
Rainfall 0.00 in
Snow Depth Not available.
UV 4 out of 12
Pollen 5.60 out of 12
Air Quality Not available.
Flu Activity Not available.
METAR KJWG 292235Z AUTO 22008KT 10SM -DZ CLR 22/20 A3013 RMK AO2 T02230195

More Conditions Fewer Conditions

10-Day Weather Forecast

Almanac

Astronomy

Jul. 29, 2014 Rise Set
Actual Time 6:40 AM CDT 8:43 PM CDT
Civil Twilight 6:12 AM CDT 9:11 PM CDT
Nautical Twilight 5:37 AM CDT 9:46 PM CDT
Astronomical Twilight 5:00 AM CDT 10:23 PM CDT
Moon 9:12 AM CDT 10:03 PM CDT
Length of Visible Light 14h 59m
Length of Day
14h 02m
Tomorrow will be 1m 39s shorter.
Waxing Crescent, 8% of the Moon is Illuminated
Today
Waxing Crescent
Aug 3
First Quarter
Aug 10
Full
Aug 17
Last Quarter
Aug 25
New

Today's Extremes

State Highs State Lows

Community

WunderPhotos

Upload Photos

1,738,909 photos uploaded!

Nearby

Snow Depth

Station Depth Elevation
No new snow has been reported.

Earthquake Activity

City Distance Mag. Time & Date
Helena, Oklahoma 57 miles 3.3 11:56 PM CDT
2014-07-24
Guthrie, Oklahoma 83 miles 2.7 5:27 AM CDT
2014-07-24
Langston, Oklahoma 93 miles 3.2 9:03 AM CDT
2014-07-23
Langston, Oklahoma 92 miles 3.3 9:02 PM CDT
2014-07-22
Minimum magnitude displayed is 2.5.

Coastal Water Temperatures

Place Temperature
No Stations Reporting

Nearby Weather Stations

Station Location Temp. Heat Index Dew Point Humidity Wind Precip. Elev Updated Type
7H Ranch, Chester, OK 69.8 °F - 66 °F 89% SW  at  8.3 mph 0.00 in / hr 1716 ft 5:55 PM CDT Rapid Fire
The MadCatter Canton Oklahoma, Canton, OK 71.6 °F 73 °F 63 °F 75% SSW  at  13.0 mph - / hr 1654 ft 5:45 PM CDT Normal

Show More Stations Show Fewer Stations